sensor_id;sensor_type;location;lat;lon;timestamp;P1;durP1;ratioP1;P2;durP2;ratioP2
53718;SDS011;39616;48.872;9.390;2023-07-28T00:00:27;4.60;;;1.77;;
53718;SDS011;39616;48.872;9.390;2023-07-28T00:02:57;6.07;;;1.65;;
53718;SDS011;39616;48.872;9.390;2023-07-28T00:05:27;2.58;;;1.63;;
53718;SDS011;39616;48.872;9.390;2023-07-28T00:07:57;3.20;;;1.60;;
53718;SDS011;39616;48.872;9.390;2023-07-28T00:10:28;5.30;;;1.90;;
53718;SDS011;39616;48.872;9.390;2023-07-28T00:12:58;4.03;;;2.22;;
53718;SDS011;39616;48.872;9.390;2023-07-28T00:15:29;5.13;;;1.60;;
53718;SDS011;39616;48.872;9.390;2023-07-28T00:17:59;2.30;;;1.80;;
53718;SDS011;39616;48.872;9.390;2023-07-28T00:20:31;6.22;;;3.70;;
53718;SDS011;39616;48.872;9.390;2023-07-28T00:23:01;6.25;;;2.63;;
53718;SDS011;39616;48.872;9.390;2023-07-28T00:25:32;5.40;;;3.05;;
53718;SDS011;39616;48.872;9.390;2023-07-28T00:28:02;5.03;;;2.80;;
53718;SDS011;39616;48.872;9.390;2023-07-28T00:30:33;3.85;;;2.80;;
53718;SDS011;39616;48.872;9.390;2023-07-28T00:33:03;4.53;;;2.70;;
53718;SDS011;39616;48.872;9.390;2023-07-28T00:35:33;5.45;;;2.42;;
53718;SDS011;39616;48.872;9.390;2023-07-28T00:38:03;2.67;;;1.90;;
53718;SDS011;39616;48.872;9.390;2023-07-28T00:40:34;3.28;;;1.98;;
53718;SDS011;39616;48.872;9.390;2023-07-28T00:43:05;3.00;;;1.77;;
53718;SDS011;39616;48.872;9.390;2023-07-28T00:45:35;5.25;;;1.90;;
53718;SDS011;39616;48.872;9.390;2023-07-28T00:48:12;2.30;;;2.00;;
53718;SDS011;39616;48.872;9.390;2023-07-28T00:50:46;1.70;;;1.58;;
53718;SDS011;39616;48.872;9.390;2023-07-28T00:53:18;3.60;;;1.90;;
53718;SDS011;39616;48.872;9.390;2023-07-28T00:55:50;4.07;;;1.65;;
53718;SDS011;39616;48.872;9.390;2023-07-28T00:58:21;4.63;;;1.90;;
53718;SDS011;39616;48.872;9.390;2023-07-28T01:00:52;2.70;;;1.60;;
53718;SDS011;39616;48.872;9.390;2023-07-28T01:03:22;2.55;;;1.38;;
53718;SDS011;39616;48.872;9.390;2023-07-28T01:06:09;3.22;;;1.50;;
53718;SDS011;39616;48.872;9.390;2023-07-28T01:08:49;1.55;;;1.30;;
53718;SDS011;39616;48.872;9.390;2023-07-28T01:11:26;1.98;;;1.40;;
53718;SDS011;39616;48.872;9.390;2023-07-28T01:13:58;1.55;;;1.20;;
53718;SDS011;39616;48.872;9.390;2023-07-28T01:16:28;3.03;;;1.50;;
53718;SDS011;39616;48.872;9.390;2023-07-28T01:18:59;1.73;;;1.40;;
53718;SDS011;39616;48.872;9.390;2023-07-28T01:21:30;2.45;;;1.50;;
53718;SDS011;39616;48.872;9.390;2023-07-28T01:26:42;2.97;;;1.20;;
53718;SDS011;39616;48.872;9.390;2023-07-28T01:29:13;1.98;;;1.20;;
53718;SDS011;39616;48.872;9.390;2023-07-28T01:31:48;1.52;;;1.17;;
53718;SDS011;39616;48.872;9.390;2023-07-28T01:34:18;3.33;;;1.77;;
53718;SDS011;39616;48.872;9.390;2023-07-28T01:36:48;2.13;;;1.50;;
53718;SDS011;39616;48.872;9.390;2023-07-28T01:39:19;1.95;;;1.58;;
53718;SDS011;39616;48.872;9.390;2023-07-28T01:41:49;2.25;;;1.40;;
53718;SDS011;39616;48.872;9.390;2023-07-28T01:44:19;3.50;;;1.20;;
53718;SDS011;39616;48.872;9.390;2023-07-28T01:46:49;2.10;;;1.20;;
53718;SDS011;39616;48.872;9.390;2023-07-28T01:49:20;2.60;;;1.50;;
53718;SDS011;39616;48.872;9.390;2023-07-28T01:51:50;3.10;;;1.58;;
53718;SDS011;39616;48.872;9.390;2023-07-28T01:54:20;2.60;;;1.33;;
53718;SDS011;39616;48.872;9.390;2023-07-28T01:56:51;2.42;;;1.42;;
53718;SDS011;39616;48.872;9.390;2023-07-28T01:59:21;5.10;;;1.55;;
53718;SDS011;39616;48.872;9.390;2023-07-28T02:01:51;1.83;;;1.40;;
53718;SDS011;39616;48.872;9.390;2023-07-28T02:04:22;2.47;;;1.58;;
53718;SDS011;39616;48.872;9.390;2023-07-28T02:06:52;1.83;;;1.55;;
53718;SDS011;39616;48.872;9.390;2023-07-28T02:09:22;2.60;;;1.85;;
53718;SDS011;39616;48.872;9.390;2023-07-28T02:11:52;3.38;;;2.20;;
53718;SDS011;39616;48.872;9.390;2023-07-28T02:14:26;2.28;;;2.08;;
53718;SDS011;39616;48.872;9.390;2023-07-28T02:16:56;11.07;;;5.05;;
53718;SDS011;39616;48.872;9.390;2023-07-28T02:19:26;5.82;;;3.33;;
53718;SDS011;39616;48.872;9.390;2023-07-28T02:21:57;3.50;;;2.05;;
53718;SDS011;39616;48.872;9.390;2023-07-28T02:24:27;4.72;;;2.60;;
53718;SDS011;39616;48.872;9.390;2023-07-28T02:26:57;3.72;;;2.55;;
53718;SDS011;39616;48.872;9.390;2023-07-28T02:29:27;3.72;;;2.28;;
53718;SDS011;39616;48.872;9.390;2023-07-28T02:31:58;8.85;;;2.50;;
53718;SDS011;39616;48.872;9.390;2023-07-28T02:34:28;3.90;;;2.22;;
53718;SDS011;39616;48.872;9.390;2023-07-28T02:36:58;4.35;;;2.92;;
53718;SDS011;39616;48.872;9.390;2023-07-28T02:39:29;2.75;;;1.95;;
53718;SDS011;39616;48.872;9.390;2023-07-28T02:41:59;4.25;;;2.20;;
53718;SDS011;39616;48.872;9.390;2023-07-28T02:44:29;6.57;;;3.10;;
53718;SDS011;39616;48.872;9.390;2023-07-28T02:46:59;2.78;;;2.10;;
53718;SDS011;39616;48.872;9.390;2023-07-28T02:49:30;3.13;;;2.53;;
53718;SDS011;39616;48.872;9.390;2023-07-28T02:52:00;4.35;;;3.13;;
53718;SDS011;39616;48.872;9.390;2023-07-28T02:54:30;4.07;;;3.10;;
53718;SDS011;39616;48.872;9.390;2023-07-28T02:57:01;5.40;;;2.80;;
53718;SDS011;39616;48.872;9.390;2023-07-28T02:59:31;4.07;;;1.95;;
53718;SDS011;39616;48.872;9.390;2023-07-28T03:02:01;5.10;;;2.28;;
53718;SDS011;39616;48.872;9.390;2023-07-28T03:04:32;3.85;;;2.30;;
53718;SDS011;39616;48.872;9.390;2023-07-28T03:07:02;2.88;;;1.90;;
53718;SDS011;39616;48.872;9.390;2023-07-28T03:09:32;2.20;;;1.92;;
53718;SDS011;39616;48.872;9.390;2023-07-28T03:12:03;2.90;;;2.17;;
53718;SDS011;39616;48.872;9.390;2023-07-28T03:14:35;7.20;;;2.05;;
53718;SDS011;39616;48.872;9.390;2023-07-28T03:17:05;1.70;;;1.50;;
53718;SDS011;39616;48.872;9.390;2023-07-28T03:19:36;4.28;;;2.47;;
53718;SDS011;39616;48.872;9.390;2023-07-28T03:22:06;4.80;;;2.05;;
53718;SDS011;39616;48.872;9.390;2023-07-28T03:24:36;4.32;;;1.95;;
53718;SDS011;39616;48.872;9.390;2023-07-28T03:27:06;2.15;;;1.95;;
53718;SDS011;39616;48.872;9.390;2023-07-28T03:29:38;4.10;;;2.17;;
53718;SDS011;39616;48.872;9.390;2023-07-28T03:32:09;3.38;;;1.52;;
53718;SDS011;39616;48.872;9.390;2023-07-28T03:34:39;4.82;;;1.92;;
53718;SDS011;39616;48.872;9.390;2023-07-28T03:37:10;3.03;;;2.47;;
53718;SDS011;39616;48.872;9.390;2023-07-28T03:39:40;3.33;;;2.50;;
53718;SDS011;39616;48.872;9.390;2023-07-28T03:42:10;3.47;;;2.10;;
53718;SDS011;39616;48.872;9.390;2023-07-28T03:44:41;5.72;;;2.65;;
53718;SDS011;39616;48.872;9.390;2023-07-28T03:47:11;7.50;;;2.83;;
53718;SDS011;39616;48.872;9.390;2023-07-28T03:49:41;4.20;;;2.67;;
53718;SDS011;39616;48.872;9.390;2023-07-28T03:52:12;4.63;;;2.53;;
53718;SDS011;39616;48.872;9.390;2023-07-28T03:54:42;4.00;;;2.35;;
53718;SDS011;39616;48.872;9.390;2023-07-28T03:57:12;4.43;;;2.92;;
53718;SDS011;39616;48.872;9.390;2023-07-28T03:59:43;3.60;;;3.05;;
53718;SDS011;39616;48.872;9.390;2023-07-28T04:02:13;4.85;;;2.83;;
53718;SDS011;39616;48.872;9.390;2023-07-28T04:04:43;2.58;;;2.35;;
53718;SDS011;39616;48.872;9.390;2023-07-28T04:07:13;4.35;;;3.35;;
53718;SDS011;39616;48.872;9.390;2023-07-28T04:09:44;5.45;;;3.33;;
53718;SDS011;39616;48.872;9.390;2023-07-28T04:12:14;4.00;;;2.88;;
53718;SDS011;39616;48.872;9.390;2023-07-28T04:14:44;6.32;;;2.72;;
53718;SDS011;39616;48.872;9.390;2023-07-28T04:17:15;4.80;;;3.15;;
53718;SDS011;39616;48.872;9.390;2023-07-28T04:19:45;8.65;;;2.80;;
53718;SDS011;39616;48.872;9.390;2023-07-28T04:22:15;5.43;;;2.80;;
53718;SDS011;39616;48.872;9.390;2023-07-28T04:24:51;4.07;;;3.15;;
53718;SDS011;39616;48.872;9.390;2023-07-28T04:27:21;3.72;;;3.28;;
53718;SDS011;39616;48.872;9.390;2023-07-28T04:29:51;3.13;;;2.72;;
53718;SDS011;39616;48.872;9.390;2023-07-28T04:32:24;5.88;;;3.20;;
53718;SDS011;39616;48.872;9.390;2023-07-28T04:34:56;3.33;;;2.90;;
53718;SDS011;39616;48.872;9.390;2023-07-28T04:37:27;4.47;;;2.60;;
53718;SDS011;39616;48.872;9.390;2023-07-28T04:39:57;4.10;;;1.77;;
53718;SDS011;39616;48.872;9.390;2023-07-28T04:42:27;2.65;;;2.28;;
53718;SDS011;39616;48.872;9.390;2023-07-28T04:44:57;2.92;;;2.63;;
53718;SDS011;39616;48.872;9.390;2023-07-28T04:47:28;2.70;;;1.92;;
53718;SDS011;39616;48.872;9.390;2023-07-28T04:49:58;4.25;;;2.15;;
53718;SDS011;39616;48.872;9.390;2023-07-28T04:52:28;4.40;;;2.30;;
53718;SDS011;39616;48.872;9.390;2023-07-28T04:54:59;1.88;;;1.63;;
53718;SDS011;39616;48.872;9.390;2023-07-28T04:57:29;2.35;;;1.83;;
53718;SDS011;39616;48.872;9.390;2023-07-28T04:59:59;2.35;;;2.15;;
53718;SDS011;39616;48.872;9.390;2023-07-28T05:02:29;5.18;;;2.33;;
53718;SDS011;39616;48.872;9.390;2023-07-28T05:05:00;2.47;;;2.00;;
53718;SDS011;39616;48.872;9.390;2023-07-28T05:07:30;4.07;;;2.15;;
53718;SDS011;39616;48.872;9.390;2023-07-28T05:10:00;4.65;;;2.50;;
53718;SDS011;39616;48.872;9.390;2023-07-28T05:12:31;4.18;;;2.13;;
53718;SDS011;39616;48.872;9.390;2023-07-28T05:15:01;4.25;;;2.85;;
53718;SDS011;39616;48.872;9.390;2023-07-28T05:17:31;4.25;;;2.42;;
53718;SDS011;39616;48.872;9.390;2023-07-28T05:20:02;5.75;;;2.53;;
53718;SDS011;39616;48.872;9.390;2023-07-28T05:22:33;4.65;;;2.58;;
53718;SDS011;39616;48.872;9.390;2023-07-28T05:25:03;5.07;;;2.95;;
53718;SDS011;39616;48.872;9.390;2023-07-28T05:27:34;3.65;;;3.15;;
53718;SDS011;39616;48.872;9.390;2023-07-28T05:30:04;4.68;;;3.50;;
53718;SDS011;39616;48.872;9.390;2023-07-28T05:32:35;6.90;;;3.90;;
53718;SDS011;39616;48.872;9.390;2023-07-28T05:35:06;5.07;;;3.83;;
53718;SDS011;39616;48.872;9.390;2023-07-28T05:37:36;8.60;;;4.30;;
53718;SDS011;39616;48.872;9.390;2023-07-28T05:40:07;13.10;;;4.03;;
53718;SDS011;39616;48.872;9.390;2023-07-28T05:42:41;9.95;;;3.67;;
53718;SDS011;39616;48.872;9.390;2023-07-28T05:45:11;6.30;;;2.97;;
53718;SDS011;39616;48.872;9.390;2023-07-28T05:47:44;4.38;;;3.40;;
53718;SDS011;39616;48.872;9.390;2023-07-28T05:50:15;6.28;;;4.22;;
53718;SDS011;39616;48.872;9.390;2023-07-28T05:52:45;6.10;;;3.97;;
53718;SDS011;39616;48.872;9.390;2023-07-28T05:55:16;8.57;;;3.55;;
53718;SDS011;39616;48.872;9.390;2023-07-28T05:57:47;7.85;;;4.25;;
53718;SDS011;39616;48.872;9.390;2023-07-28T06:00:17;5.97;;;4.07;;
53718;SDS011;39616;48.872;9.390;2023-07-28T06:02:47;8.43;;;4.25;;
53718;SDS011;39616;48.872;9.390;2023-07-28T06:05:18;6.30;;;3.90;;
53718;SDS011;39616;48.872;9.390;2023-07-28T06:07:48;7.07;;;3.80;;
53718;SDS011;39616;48.872;9.390;2023-07-28T06:10:18;11.40;;;4.90;;
53718;SDS011;39616;48.872;9.390;2023-07-28T06:12:49;10.20;;;4.70;;
53718;SDS011;39616;48.872;9.390;2023-07-28T06:15:19;7.13;;;4.45;;
53718;SDS011;39616;48.872;9.390;2023-07-28T06:17:49;7.40;;;4.95;;
53718;SDS011;39616;48.872;9.390;2023-07-28T06:20:20;7.82;;;3.92;;
53718;SDS011;39616;48.872;9.390;2023-07-28T06:22:50;9.18;;;4.22;;
53718;SDS011;39616;48.872;9.390;2023-07-28T06:25:23;8.52;;;4.30;;
53718;SDS011;39616;48.872;9.390;2023-07-28T06:27:53;13.40;;;4.10;;
53718;SDS011;39616;48.872;9.390;2023-07-28T06:30:24;7.82;;;3.83;;
53718;SDS011;39616;48.872;9.390;2023-07-28T06:32:58;8.32;;;4.13;;
53718;SDS011;39616;48.872;9.390;2023-07-28T06:35:28;8.40;;;4.55;;
53718;SDS011;39616;48.872;9.390;2023-07-28T06:37:59;6.82;;;4.43;;
53718;SDS011;39616;48.872;9.390;2023-07-28T06:40:30;7.57;;;4.68;;
53718;SDS011;39616;48.872;9.390;2023-07-28T06:43:00;9.27;;;4.60;;
53718;SDS011;39616;48.872;9.390;2023-07-28T06:45:31;6.13;;;4.13;;
53718;SDS011;39616;48.872;9.390;2023-07-28T06:48:01;5.85;;;4.13;;
53718;SDS011;39616;48.872;9.390;2023-07-28T06:50:31;6.03;;;4.38;;
53718;SDS011;39616;48.872;9.390;2023-07-28T06:53:02;9.38;;;4.53;;
53718;SDS011;39616;48.872;9.390;2023-07-28T06:55:32;8.02;;;4.65;;
53718;SDS011;39616;48.872;9.390;2023-07-28T06:58:03;7.22;;;4.15;;
53718;SDS011;39616;48.872;9.390;2023-07-28T07:00:33;6.72;;;4.18;;
53718;SDS011;39616;48.872;9.390;2023-07-28T07:03:03;7.22;;;4.55;;
53718;SDS011;39616;48.872;9.390;2023-07-28T07:05:34;7.43;;;4.03;;
53718;SDS011;39616;48.872;9.390;2023-07-28T07:08:04;9.95;;;4.88;;
53718;SDS011;39616;48.872;9.390;2023-07-28T07:10:34;7.05;;;4.75;;
53718;SDS011;39616;48.872;9.390;2023-07-28T07:13:04;8.30;;;4.25;;
53718;SDS011;39616;48.872;9.390;2023-07-28T07:15:35;5.25;;;4.20;;
53718;SDS011;39616;48.872;9.390;2023-07-28T07:18:05;5.78;;;3.70;;
53718;SDS011;39616;48.872;9.390;2023-07-28T07:20:36;6.25;;;3.85;;
53718;SDS011;39616;48.872;9.390;2023-07-28T07:23:08;6.82;;;4.57;;
53718;SDS011;39616;48.872;9.390;2023-07-28T07:25:38;7.63;;;3.67;;
53718;SDS011;39616;48.872;9.390;2023-07-28T07:28:09;5.75;;;3.47;;
53718;SDS011;39616;48.872;9.390;2023-07-28T07:30:39;4.97;;;3.78;;
53718;SDS011;39616;48.872;9.390;2023-07-28T07:33:10;6.00;;;3.83;;
53718;SDS011;39616;48.872;9.390;2023-07-28T07:35:40;10.63;;;3.63;;
53718;SDS011;39616;48.872;9.390;2023-07-28T07:38:10;7.82;;;4.30;;
53718;SDS011;39616;48.872;9.390;2023-07-28T07:40:40;5.15;;;3.85;;
53718;SDS011;39616;48.872;9.390;2023-07-28T07:43:11;9.05;;;3.97;;
53718;SDS011;39616;48.872;9.390;2023-07-28T07:45:41;4.40;;;3.53;;
53718;SDS011;39616;48.872;9.390;2023-07-28T07:48:11;10.13;;;2.58;;
53718;SDS011;39616;48.872;9.390;2023-07-28T07:50:42;5.10;;;3.63;;
53718;SDS011;39616;48.872;9.390;2023-07-28T07:53:12;4.55;;;2.97;;
53718;SDS011;39616;48.872;9.390;2023-07-28T07:55:43;4.30;;;2.38;;
53718;SDS011;39616;48.872;9.390;2023-07-28T07:58:13;4.72;;;2.70;;
53718;SDS011;39616;48.872;9.390;2023-07-28T08:00:43;5.32;;;2.92;;
53718;SDS011;39616;48.872;9.390;2023-07-28T08:03:14;5.47;;;2.85;;
53718;SDS011;39616;48.872;9.390;2023-07-28T08:05:45;5.22;;;2.90;;
53718;SDS011;39616;48.872;9.390;2023-07-28T08:08:15;3.70;;;2.28;;
53718;SDS011;39616;48.872;9.390;2023-07-28T08:10:47;4.20;;;2.70;;
53718;SDS011;39616;48.872;9.390;2023-07-28T08:13:17;4.90;;;2.85;;
53718;SDS011;39616;48.872;9.390;2023-07-28T08:15:47;4.38;;;2.83;;
53718;SDS011;39616;48.872;9.390;2023-07-28T08:18:18;4.40;;;3.10;;
53718;SDS011;39616;48.872;9.390;2023-07-28T08:20:48;8.93;;;2.85;;
53718;SDS011;39616;48.872;9.390;2023-07-28T08:23:18;8.48;;;3.63;;
53718;SDS011;39616;48.872;9.390;2023-07-28T08:25:49;6.10;;;2.75;;
53718;SDS011;39616;48.872;9.390;2023-07-28T08:28:19;4.95;;;3.38;;
53718;SDS011;39616;48.872;9.390;2023-07-28T08:30:54;6.85;;;4.15;;
53718;SDS011;39616;48.872;9.390;2023-07-28T08:35:55;5.80;;;3.60;;
53718;SDS011;39616;48.872;9.390;2023-07-28T08:38:25;4.05;;;3.65;;
53718;SDS011;39616;48.872;9.390;2023-07-28T08:40:56;5.15;;;3.60;;
53718;SDS011;39616;48.872;9.390;2023-07-28T08:43:28;4.50;;;2.83;;
53718;SDS011;39616;48.872;9.390;2023-07-28T08:45:58;9.00;;;3.63;;
53718;SDS011;39616;48.872;9.390;2023-07-28T08:48:29;4.07;;;3.63;;
53718;SDS011;39616;48.872;9.390;2023-07-28T08:50:59;9.40;;;3.67;;
53718;SDS011;39616;48.872;9.390;2023-07-28T08:53:29;7.00;;;3.40;;
53718;SDS011;39616;48.872;9.390;2023-07-28T08:56:00;8.38;;;3.40;;
53718;SDS011;39616;48.872;9.390;2023-07-28T08:58:31;7.13;;;2.85;;
53718;SDS011;39616;48.872;9.390;2023-07-28T09:01:01;5.68;;;2.95;;
53718;SDS011;39616;48.872;9.390;2023-07-28T09:03:32;4.03;;;3.15;;
53718;SDS011;39616;48.872;9.390;2023-07-28T09:06:07;4.05;;;2.97;;
53718;SDS011;39616;48.872;9.390;2023-07-28T09:08:38;3.92;;;3.05;;
53718;SDS011;39616;48.872;9.390;2023-07-28T09:11:09;5.03;;;3.20;;
53718;SDS011;39616;48.872;9.390;2023-07-28T09:13:40;6.18;;;3.25;;
53718;SDS011;39616;48.872;9.390;2023-07-28T09:16:16;4.90;;;3.10;;
53718;SDS011;39616;48.872;9.390;2023-07-28T09:18:50;4.72;;;3.20;;
53718;SDS011;39616;48.872;9.390;2023-07-28T09:21:21;5.95;;;3.80;;
53718;SDS011;39616;48.872;9.390;2023-07-28T09:23:51;3.40;;;2.55;;
53718;SDS011;39616;48.872;9.390;2023-07-28T09:26:24;3.50;;;3.10;;
53718;SDS011;39616;48.872;9.390;2023-07-28T09:28:54;5.70;;;3.15;;
53718;SDS011;39616;48.872;9.390;2023-07-28T09:31:30;4.38;;;3.22;;
53718;SDS011;39616;48.872;9.390;2023-07-28T09:34:02;4.72;;;3.45;;
53718;SDS011;39616;48.872;9.390;2023-07-28T09:36:32;6.70;;;3.55;;
53718;SDS011;39616;48.872;9.390;2023-07-28T09:39:04;8.43;;;3.33;;
53718;SDS011;39616;48.872;9.390;2023-07-28T09:41:37;4.70;;;3.10;;
53718;SDS011;39616;48.872;9.390;2023-07-28T09:44:08;4.15;;;2.42;;
53718;SDS011;39616;48.872;9.390;2023-07-28T09:46:43;3.38;;;2.22;;
53718;SDS011;39616;48.872;9.390;2023-07-28T09:49:36;4.13;;;2.15;;
53718;SDS011;39616;48.872;9.390;2023-07-28T09:52:09;3.05;;;1.73;;
53718;SDS011;39616;48.872;9.390;2023-07-28T09:54:41;3.20;;;1.98;;
53718;SDS011;39616;48.872;9.390;2023-07-28T09:57:13;4.55;;;2.10;;
53718;SDS011;39616;48.872;9.390;2023-07-28T09:59:49;2.40;;;1.83;;
53718;SDS011;39616;48.872;9.390;2023-07-28T10:02:24;2.90;;;2.00;;
53718;SDS011;39616;48.872;9.390;2023-07-28T10:04:55;5.85;;;1.80;;
53718;SDS011;39616;48.872;9.390;2023-07-28T10:07:25;2.85;;;1.73;;
53718;SDS011;39616;48.872;9.390;2023-07-28T10:09:57;2.63;;;1.63;;
53718;SDS011;39616;48.872;9.390;2023-07-28T10:12:28;3.13;;;2.13;;
53718;SDS011;39616;48.872;9.390;2023-07-28T10:15:02;1.83;;;1.40;;
53718;SDS011;39616;48.872;9.390;2023-07-28T10:17:33;3.55;;;1.70;;
53718;SDS011;39616;48.872;9.390;2023-07-28T10:20:05;1.70;;;1.52;;
53718;SDS011;39616;48.872;9.390;2023-07-28T10:22:44;2.83;;;0.90;;
53718;SDS011;39616;48.872;9.390;2023-07-28T10:25:21;1.60;;;1.10;;
53718;SDS011;39616;48.872;9.390;2023-07-28T10:27:53;5.43;;;1.50;;
53718;SDS011;39616;48.872;9.390;2023-07-28T10:30:23;2.05;;;1.20;;
53718;SDS011;39616;48.872;9.390;2023-07-28T10:32:54;2.95;;;1.00;;
53718;SDS011;39616;48.872;9.390;2023-07-28T10:35:26;2.00;;;1.33;;
53718;SDS011;39616;48.872;9.390;2023-07-28T10:37:57;1.00;;;0.90;;
53718;SDS011;39616;48.872;9.390;2023-07-28T10:40:32;1.92;;;1.00;;
53718;SDS011;39616;48.872;9.390;2023-07-28T10:43:06;1.63;;;1.10;;
53718;SDS011;39616;48.872;9.390;2023-07-28T10:45:36;2.08;;;0.93;;
53718;SDS011;39616;48.872;9.390;2023-07-28T10:48:07;1.42;;;1.00;;
53718;SDS011;39616;48.872;9.390;2023-07-28T10:50:37;1.77;;;1.00;;
53718;SDS011;39616;48.872;9.390;2023-07-28T10:53:07;2.63;;;0.82;;
53718;SDS011;39616;48.872;9.390;2023-07-28T10:55:41;1.33;;;0.95;;
53718;SDS011;39616;48.872;9.390;2023-07-28T10:58:11;2.88;;;0.98;;
53718;SDS011;39616;48.872;9.390;2023-07-28T11:00:41;2.00;;;1.00;;
53718;SDS011;39616;48.872;9.390;2023-07-28T11:03:11;1.35;;;0.82;;
53718;SDS011;39616;48.872;9.390;2023-07-28T11:05:42;0.90;;;0.85;;
53718;SDS011;39616;48.872;9.390;2023-07-28T11:08:12;1.98;;;1.00;;
53718;SDS011;39616;48.872;9.390;2023-07-28T11:10:43;1.08;;;0.90;;
53718;SDS011;39616;48.872;9.390;2023-07-28T11:13:14;3.63;;;0.90;;
53718;SDS011;39616;48.872;9.390;2023-07-28T11:15:45;1.35;;;0.90;;
53718;SDS011;39616;48.872;9.390;2023-07-28T11:18:15;1.73;;;0.98;;
53718;SDS011;39616;48.872;9.390;2023-07-28T11:20:46;3.63;;;1.08;;
53718;SDS011;39616;48.872;9.390;2023-07-28T11:23:17;1.70;;;0.85;;
53718;SDS011;39616;48.872;9.390;2023-07-28T11:25:47;1.35;;;1.00;;
53718;SDS011;39616;48.872;9.390;2023-07-28T11:28:19;0.95;;;0.85;;
53718;SDS011;39616;48.872;9.390;2023-07-28T11:30:49;1.50;;;0.93;;
53718;SDS011;39616;48.872;9.390;2023-07-28T11:33:19;1.85;;;1.10;;
53718;SDS011;39616;48.872;9.390;2023-07-28T11:35:50;2.38;;;1.00;;
53718;SDS011;39616;48.872;9.390;2023-07-28T11:38:20;1.38;;;1.00;;
53718;SDS011;39616;48.872;9.390;2023-07-28T11:40:51;1.20;;;0.90;;
53718;SDS011;39616;48.872;9.390;2023-07-28T11:43:22;1.38;;;0.85;;
53718;SDS011;39616;48.872;9.390;2023-07-28T11:45:53;0.80;;;0.80;;
53718;SDS011;39616;48.872;9.390;2023-07-28T11:48:23;3.60;;;0.80;;
53718;SDS011;39616;48.872;9.390;2023-07-28T11:51:00;1.65;;;0.80;;
53718;SDS011;39616;48.872;9.390;2023-07-28T11:53:32;3.35;;;0.77;;
53718;SDS011;39616;48.872;9.390;2023-07-28T11:56:03;1.40;;;0.88;;
53718;SDS011;39616;48.872;9.390;2023-07-28T11:58:34;4.03;;;0.63;;
53718;SDS011;39616;48.872;9.390;2023-07-28T12:01:07;1.33;;;0.70;;
53718;SDS011;39616;48.872;9.390;2023-07-28T12:03:38;1.45;;;0.60;;
53718;SDS011;39616;48.872;9.390;2023-07-28T12:06:08;0.70;;;0.60;;
53718;SDS011;39616;48.872;9.390;2023-07-28T12:08:40;2.30;;;0.60;;
53718;SDS011;39616;48.872;9.390;2023-07-28T12:11:14;0.70;;;0.50;;
53718;SDS011;39616;48.872;9.390;2023-07-28T12:13:47;0.52;;;0.50;;
53718;SDS011;39616;48.872;9.390;2023-07-28T12:16:40;1.70;;;0.60;;
53718;SDS011;39616;48.872;9.390;2023-07-28T12:19:17;1.15;;;0.60;;
53718;SDS011;39616;48.872;9.390;2023-07-28T12:21:48;0.70;;;0.50;;
53718;SDS011;39616;48.872;9.390;2023-07-28T12:24:18;0.80;;;0.60;;
53718;SDS011;39616;48.872;9.390;2023-07-28T12:26:50;0.68;;;0.40;;
53718;SDS011;39616;48.872;9.390;2023-07-28T12:29:20;0.60;;;0.50;;
53718;SDS011;39616;48.872;9.390;2023-07-28T12:31:51;0.70;;;0.70;;
53718;SDS011;39616;48.872;9.390;2023-07-28T12:34:21;1.23;;;0.65;;
53718;SDS011;39616;48.872;9.390;2023-07-28T12:36:51;1.35;;;0.55;;
53718;SDS011;39616;48.872;9.390;2023-07-28T12:39:21;1.27;;;0.60;;
53718;SDS011;39616;48.872;9.390;2023-07-28T12:41:53;1.67;;;0.60;;
53718;SDS011;39616;48.872;9.390;2023-07-28T12:44:23;1.20;;;0.65;;
53718;SDS011;39616;48.872;9.390;2023-07-28T12:46:54;4.07;;;0.80;;
53718;SDS011;39616;48.872;9.390;2023-07-28T12:49:24;0.93;;;0.70;;
53718;SDS011;39616;48.872;9.390;2023-07-28T12:51:55;0.70;;;0.70;;
53718;SDS011;39616;48.872;9.390;2023-07-28T12:54:26;2.28;;;0.80;;
53718;SDS011;39616;48.872;9.390;2023-07-28T12:56:57;1.90;;;0.85;;
53718;SDS011;39616;48.872;9.390;2023-07-28T12:59:27;1.27;;;0.90;;
53718;SDS011;39616;48.872;9.390;2023-07-28T13:01:59;0.98;;;0.82;;
53718;SDS011;39616;48.872;9.390;2023-07-28T13:04:29;1.83;;;0.90;;
53718;SDS011;39616;48.872;9.390;2023-07-28T13:07:00;3.15;;;0.90;;
53718;SDS011;39616;48.872;9.390;2023-07-28T13:09:30;2.00;;;0.98;;
53718;SDS011;39616;48.872;9.390;2023-07-28T13:12:00;1.42;;;0.90;;
53718;SDS011;39616;48.872;9.390;2023-07-28T13:14:31;1.58;;;0.85;;
53718;SDS011;39616;48.872;9.390;2023-07-28T13:17:01;2.33;;;0.75;;
53718;SDS011;39616;48.872;9.390;2023-07-28T13:19:31;4.60;;;1.40;;
53718;SDS011;39616;48.872;9.390;2023-07-28T13:22:02;2.42;;;0.80;;
53718;SDS011;39616;48.872;9.390;2023-07-28T13:24:32;1.20;;;0.90;;
53718;SDS011;39616;48.872;9.390;2023-07-28T13:27:02;1.60;;;0.82;;
53718;SDS011;39616;48.872;9.390;2023-07-28T13:29:33;1.33;;;0.70;;
53718;SDS011;39616;48.872;9.390;2023-07-28T13:32:03;2.33;;;1.08;;
53718;SDS011;39616;48.872;9.390;2023-07-28T13:34:34;2.42;;;0.93;;
53718;SDS011;39616;48.872;9.390;2023-07-28T13:37:04;3.53;;;1.10;;
53718;SDS011;39616;48.872;9.390;2023-07-28T13:39:35;1.77;;;1.10;;
53718;SDS011;39616;48.872;9.390;2023-07-28T13:42:05;3.33;;;1.10;;
53718;SDS011;39616;48.872;9.390;2023-07-28T13:44:36;2.25;;;0.90;;
53718;SDS011;39616;48.872;9.390;2023-07-28T13:47:06;1.75;;;1.10;;
53718;SDS011;39616;48.872;9.390;2023-07-28T13:49:36;2.40;;;1.27;;
53718;SDS011;39616;48.872;9.390;2023-07-28T13:52:07;1.25;;;0.90;;
53718;SDS011;39616;48.872;9.390;2023-07-28T13:54:37;1.52;;;1.15;;
53718;SDS011;39616;48.872;9.390;2023-07-28T13:57:08;5.57;;;1.58;;
53718;SDS011;39616;48.872;9.390;2023-07-28T13:59:38;5.45;;;2.70;;
53718;SDS011;39616;48.872;9.390;2023-07-28T14:02:08;10.23;;;5.55;;
53718;SDS011;39616;48.872;9.390;2023-07-28T14:04:39;8.70;;;6.50;;
53718;SDS011;39616;48.872;9.390;2023-07-28T14:07:09;11.57;;;6.10;;
53718;SDS011;39616;48.872;9.390;2023-07-28T14:09:40;15.27;;;6.90;;
53718;SDS011;39616;48.872;9.390;2023-07-28T14:12:10;13.20;;;7.53;;
53718;SDS011;39616;48.872;9.390;2023-07-28T14:14:41;10.85;;;6.05;;
53718;SDS011;39616;48.872;9.390;2023-07-28T14:17:11;6.20;;;3.60;;
53718;SDS011;39616;48.872;9.390;2023-07-28T14:19:41;5.63;;;2.85;;
53718;SDS011;39616;48.872;9.390;2023-07-28T14:22:12;5.68;;;2.70;;
53718;SDS011;39616;48.872;9.390;2023-07-28T14:24:42;5.25;;;1.77;;
53718;SDS011;39616;48.872;9.390;2023-07-28T14:27:12;5.28;;;1.92;;
53718;SDS011;39616;48.872;9.390;2023-07-28T14:29:43;6.07;;;2.90;;
53718;SDS011;39616;48.872;9.390;2023-07-28T14:32:13;4.70;;;2.85;;
53718;SDS011;39616;48.872;9.390;2023-07-28T14:34:43;8.07;;;4.45;;
53718;SDS011;39616;48.872;9.390;2023-07-28T14:37:13;6.80;;;4.20;;
53718;SDS011;39616;48.872;9.390;2023-07-28T14:39:44;5.50;;;3.53;;
53718;SDS011;39616;48.872;9.390;2023-07-28T14:42:14;7.20;;;4.35;;
53718;SDS011;39616;48.872;9.390;2023-07-28T14:44:46;7.43;;;4.68;;
53718;SDS011;39616;48.872;9.390;2023-07-28T14:47:16;3.58;;;3.28;;
53718;SDS011;39616;48.872;9.390;2023-07-28T14:49:46;7.78;;;4.63;;
53718;SDS011;39616;48.872;9.390;2023-07-28T14:52:17;7.00;;;4.55;;
53718;SDS011;39616;48.872;9.390;2023-07-28T14:54:47;8.40;;;3.50;;
53718;SDS011;39616;48.872;9.390;2023-07-28T14:57:17;5.35;;;3.30;;
53718;SDS011;39616;48.872;9.390;2023-07-28T14:59:47;3.88;;;2.10;;
53718;SDS011;39616;48.872;9.390;2023-07-28T15:02:18;6.03;;;2.65;;
53718;SDS011;39616;48.872;9.390;2023-07-28T15:04:48;3.92;;;2.72;;
53718;SDS011;39616;48.872;9.390;2023-07-28T15:07:18;3.42;;;2.42;;
53718;SDS011;39616;48.872;9.390;2023-07-28T15:09:49;3.33;;;2.25;;
53718;SDS011;39616;48.872;9.390;2023-07-28T15:12:19;4.63;;;2.85;;
53718;SDS011;39616;48.872;9.390;2023-07-28T15:14:49;2.92;;;2.20;;